.
WxDataArchive / Data Records for 2015-04-04
2015-04-03 April 2015 2015-04-05

Data Records for Saturday, 04 April 2015

Time	Temp	Chill	HIndex	Humid	Dewpt	 Wind 	HiWind	WindDir	Rain 	Barom
-----	----	-----	------	-----	-----	------	------	-------	-----	-----
00:00	36.6	36.6	36.6	62	24.8	3	8	292	0.00	30.032 
00:05	36.5	36.5	36.5	61	24.3	3	9	338	0.00	30.032 
00:10	36.3	36.3	36.3	61	24.2	3	7	292	0.00	30.032 
00:15	36.3	36.3	36.3	60	23.8	3	8	270	0.00	30.035 
00:20	36.2	36.2	36.2	60	23.7	3	11	292	0.00	30.035 
00:25	35.9	35.9	35.9	60	23.4	2	7	292	0.00	30.035 
00:30	35.8	35.8	35.8	60	23.3	2	6	292	0.00	30.045 
00:35	35.6	35.6	35.6	60	23.1	2	7	315	0.00	30.045 
00:40	35.6	35.6	35.6	58	22.3	3	11	292	0.00	30.045 
00:45	35.5	35.5	35.5	58	22.2	3	7	292	0.00	30.054 
00:50	35.3	31.9	35.3	56	21.2	4	9	292	0.00	30.054 
00:55	35.3	31.9	35.3	55	20.8	4	11	315	0.00	30.054 
01:00	35.2	31.8	35.2	53	19.8	4	10	315	0.00	30.066 
01:05	34.9	34.9	34.9	53	19.5	2	5	315	0.00	30.066 
01:10	34.9	31.4	34.9	53	19.5	4	9	292	0.00	30.066 
01:15	34.7	34.7	34.7	53	19.3	3	9	292	0.00	30.076 
01:20	34.6	34.6	34.6	53	19.2	2	6	315	0.00	30.076 
01:25	34.4	34.4	34.4	54	19.5	2	5	292	0.00	30.076 
01:30	34.3	34.3	34.3	54	19.4	2	7	292	0.00	30.082 
01:35	34.1	34.1	34.1	55	19.6	1	5	292	0.00	30.082 
01:40	34.0	34.0	34.0	55	19.6	2	7	292	0.00	30.082 
01:45	34.0	34.0	34.0	55	19.6	2	5	315	0.00	30.089 
01:50	33.8	33.8	33.8	56	19.8	1	6	292	0.00	30.089 
01:55	33.8	33.8	33.8	56	19.8	3	6	270	0.00	30.089 
02:00	33.7	33.7	33.7	57	20.1	1	5	315	0.00	30.098 
02:05	33.5	33.5	33.5	58	20.3	1	4	315	0.00	30.098 
02:10	33.5	33.5	33.5	58	20.3	2	5	292	0.00	30.098 
02:15	33.5	33.5	33.5	58	20.3	2	7	338	0.00	30.114 
02:20	33.4	33.4	33.4	57	19.8	1	7	292	0.00	30.114 
02:25	33.2	33.2	33.2	58	20.0	1	4	292	0.00	30.114 
02:30	33.1	33.1	33.1	58	20.0	2	5	315	0.00	30.121 
02:35	33.1	33.1	33.1	58	20.0	1	4	292	0.00	30.121 
02:40	32.9	32.9	32.9	58	19.8	1	6	270	0.00	30.121 
02:45	32.9	32.9	32.9	58	19.8	2	5	292	0.00	30.128 
02:50	32.9	32.9	32.9	57	19.4	2	6	270	0.00	30.128 
02:55	32.8	32.8	32.8	57	19.3	1	4	270	0.00	30.128 
03:00	32.7	32.7	32.7	58	19.6	1	4	270	0.00	30.133 
03:05	32.5	32.5	32.5	58	19.4	1	3	270	0.00	30.133 
03:10	32.4	32.4	32.4	59	19.7	1	4	270	0.00	30.133 
03:15	32.4	32.4	32.4	59	19.7	1	5	270	0.00	30.144 
03:20	32.2	32.2	32.2	59	19.5	1	2	270	0.00	30.144 
03:25	32.1	32.1	32.1	59	19.4	0	4	270	0.00	30.144 
03:30	31.9	31.9	31.9	60	19.6	1	4	270	0.00	30.152 
03:35	31.9	31.9	31.9	60	19.6	1	4	270	0.00	30.152 
03:40	31.8	31.8	31.8	60	19.5	0	2	270	0.00	30.152 
03:45	31.6	31.6	31.6	60	19.3	0	2	270	0.00	30.161 
03:50	31.5	31.5	31.5	60	19.2	0	2	270	0.00	30.161 
03:55	31.3	31.3	31.3	61	19.4	0	2	270	0.00	30.161 
04:00	31.2	31.2	31.2	62	19.7	0	3	270	0.00	30.172 
04:05	31.0	31.0	31.0	62	19.5	0	1	270	0.00	30.172 
04:10	31.0	31.0	31.0	63	19.9	0	2	270	0.00	30.172 
04:15	30.9	30.9	30.9	64	20.2	0	3	270	0.00	30.182 
04:20	30.7	30.7	30.7	64	20.0	1	3	270	0.00	30.182 
04:25	30.7	30.7	30.7	65	20.3	1	4	292	0.00	30.182 
04:30	30.6	30.6	30.6	65	20.3	0	2	292	0.00	30.187 
04:35	30.6	30.6	30.6	65	20.3	0	4	292	0.00	30.187 
04:40	30.4	30.4	30.4	65	20.1	0	1	292	0.00	30.187 
04:45	30.3	30.3	30.3	66	20.3	0	2	292	0.00	30.198 
04:50	30.3	30.3	30.3	66	20.3	0	2	292	0.00	30.198 
04:55	30.1	30.1	30.1	67	20.5	0	2	292	0.00	30.198 
05:00	30.0	30.0	30.0	67	20.4	1	3	292	0.00	30.203 
05:05	30.0	30.0	30.0	67	20.4	0	2	292	0.00	30.203 
05:10	30.0	30.0	30.0	67	20.4	0	2	292	0.00	30.203 
05:15	29.8	29.8	29.8	68	20.5	0	1	292	0.00	30.211 
05:20	29.7	29.7	29.7	68	20.5	0	1	292	0.00	30.211 
05:25	29.7	29.7	29.7	68	20.5	0	1	292	0.00	30.211 
05:30	29.5	29.5	29.5	68	20.3	0	2	292	0.00	30.215 
05:35	29.4	29.4	29.4	68	20.2	0	1	292	0.00	30.215 
05:40	29.4	29.4	29.4	69	20.5	0	1	292	0.00	30.215 
05:45	29.3	29.3	29.3	69	20.4	0	1	292	0.00	30.219 
05:50	29.1	29.1	29.1	69	20.2	0	1	292	0.00	30.219 
05:55	29.0	29.0	29.0	69	20.1	0	1	292	0.00	30.219 
06:00	29.0	29.0	29.0	69	20.1	0	1	292	0.00	30.221 
06:05	29.0	29.0	29.0	69	20.1	0	1	292	0.00	30.221 
06:10	28.8	28.8	28.8	70	20.3	0	0	---	0.00	30.221 
06:15	28.7	28.7	28.7	70	20.2	0	0	---	0.00	30.228 
06:20	28.5	28.5	28.5	70	20.0	0	0	---	0.00	30.228 
06:25	28.4	28.4	28.4	71	20.2	0	1	292	0.00	30.228 
06:30	28.2	28.2	28.2	72	20.4	0	0	---	0.00	30.232 
06:35	28.1	28.1	28.1	72	20.3	0	1	292	0.00	30.232 
06:40	28.1	28.1	28.1	73	20.6	0	0	---	0.00	30.232 
06:45	27.9	27.9	27.9	73	20.4	0	0	---	0.00	30.238 
06:50	27.9	27.9	27.9	74	20.7	0	0	---	0.00	30.238 
06:55	27.8	27.8	27.8	74	20.6	0	0	---	0.00	30.238 
07:00	27.8	27.8	27.8	75	20.9	0	1	292	0.00	30.258 
07:05	27.6	27.6	27.6	76	21.0	0	0	---	0.00	30.258 
07:10	27.6	27.6	27.6	77	21.4	0	1	292	0.00	30.258 
07:15	27.6	27.6	27.6	77	21.4	0	1	292	0.00	30.260 
07:20	27.8	27.8	27.8	78	21.8	0	1	292	0.00	30.260 
07:25	27.8	27.8	27.8	78	21.8	0	0	---	0.00	30.260 
07:30	27.8	27.8	27.8	79	22.2	0	1	292	0.00	30.266 
07:35	27.9	27.9	27.9	79	22.2	0	1	292	0.00	30.266 
07:40	27.9	27.9	27.9	79	22.2	0	0	---	0.00	30.266 
07:45	27.9	27.9	27.9	80	22.5	0	1	292	0.00	30.275 
07:50	27.9	27.9	27.9	80	22.5	0	0	---	0.00	30.275 
07:55	28.2	28.2	28.2	80	22.8	0	0	---	0.00	30.275 
08:00	28.4	28.4	28.4	81	23.3	0	1	292	0.00	30.273 
08:05	28.7	28.7	28.7	81	23.6	0	0	---	0.00	30.273 
08:10	29.0	29.0	29.0	81	23.9	0	1	292	0.00	30.273 
08:15	29.3	29.3	29.3	81	24.2	0	1	292	0.00	30.282 
08:20	29.5	29.5	29.5	80	24.1	0	2	292	0.00	30.282 
08:25	30.0	30.0	30.0	80	24.6	0	2	292	0.00	30.282 
08:30	30.3	30.3	30.3	80	24.9	0	2	292	0.00	30.284 
08:35	30.6	30.6	30.6	80	25.2	0	2	292	0.00	30.284 
08:40	30.7	30.7	30.7	79	25.0	0	2	292	0.00	30.284 
08:45	31.2	31.2	31.2	79	25.5	0	2	292	0.00	30.283 
08:50	31.5	31.5	31.5	78	25.4	0	2	292	0.00	30.283 
08:55	31.5	31.5	31.5	78	25.4	1	2	292	0.00	30.283 
09:00	31.8	31.8	31.8	77	25.4	1	3	292	0.00	30.281 
09:05	31.9	31.9	31.9	76	25.2	1	2	248	0.00	30.281 
09:10	32.1	32.1	32.1	76	25.4	0	2	248	0.00	30.281 
09:15	32.4	32.4	32.4	75	25.4	0	3	248	0.00	30.280 
09:20	32.7	32.7	32.7	75	25.7	0	2	248	0.00	30.280 
09:25	32.9	32.9	32.9	74	25.5	0	2	248	0.00	30.280 
09:30	33.2	33.2	33.2	72	25.2	1	2	248	0.00	30.278 
09:35	33.5	33.5	33.5	70	24.8	0	2	248	0.00	30.278 
09:40	33.8	33.8	33.8	70	25.1	0	3	248	0.00	30.278 
09:45	34.3	34.3	34.3	69	25.2	0	3	248	0.00	30.266 
09:50	34.4	34.4	34.4	68	24.9	0	2	248	0.00	30.266 
09:55	34.9	34.9	34.9	67	25.1	0	2	248	0.00	30.266 
10:00	35.2	35.2	35.2	66	25.0	0	2	248	0.00	30.264 
10:05	35.5	35.5	35.5	65	24.9	0	3	248	0.00	30.264 
10:10	35.9	35.9	35.9	65	25.3	1	2	248	0.00	30.264 
10:15	36.2	36.2	36.2	64	25.2	1	3	248	0.00	30.287 
10:20	36.5	36.5	36.5	62	24.7	2	5	315	0.00	30.287 
10:25	36.9	36.9	36.9	62	25.1	1	4	292	0.00	30.287 
10:30	37.3	37.3	37.3	62	25.5	1	3	248	0.00	30.294 
10:35	37.6	37.6	37.6	62	25.8	1	3	248	0.00	30.294 
10:40	38.2	38.2	38.2	61	26.0	1	3	248	0.00	30.294 
10:45	38.5	38.5	38.5	60	25.8	1	4	270	0.00	30.291 
10:50	38.6	38.6	38.6	61	26.3	1	3	270	0.00	30.291 
10:55	39.2	39.2	39.2	61	26.9	1	3	270	0.00	30.291 
11:00	39.5	39.5	39.5	59	26.4	1	3	270	0.00	30.284 
11:05	39.6	39.6	39.6	58	26.1	1	4	270	0.00	30.284 
11:10	39.9	39.9	39.9	58	26.3	1	3	270	0.00	30.284 
11:15	40.1	40.1	40.1	57	26.1	1	4	270	0.00	30.283 
11:20	40.3	40.3	40.3	57	26.3	1	3	270	0.00	30.283 
11:25	40.9	40.9	40.9	56	26.4	1	4	248	0.00	30.283 
11:30	41.3	41.3	41.3	54	25.9	1	4	248	0.00	30.283 
11:35	41.5	41.5	41.5	53	25.7	1	4	248	0.00	30.283 
11:40	41.6	41.6	41.6	53	25.8	1	4	248	0.00	30.283 
11:45	41.6	41.6	41.6	52	25.3	2	4	248	0.00	30.293 
11:50	41.9	41.9	41.9	52	25.6	1	5	270	0.00	30.293 
11:55	42.2	42.2	42.2	50	24.9	2	5	248	0.00	30.293 
12:00	42.6	42.6	42.6	51	25.8	2	4	248	0.00	30.286 
12:05	42.8	42.8	42.8	50	25.5	2	4	248	0.00	30.286 
12:10	43.1	43.1	43.1	50	25.7	2	5	248	0.00	30.286 
12:15	43.5	43.5	43.5	50	26.1	2	5	248	0.00	30.279 
12:20	43.8	43.8	43.8	48	25.4	2	4	270	0.00	30.279 
12:25	44.1	44.1	44.1	50	26.7	1	4	270	0.00	30.279 
12:30	44.3	44.3	44.3	49	26.4	2	4	270	0.00	30.277 
12:35	44.5	44.5	44.5	49	26.5	2	3	248	0.00	30.277 
12:40	45.1	45.1	45.1	50	27.6	1	4	248	0.00	30.277 
12:45	45.4	45.4	45.4	48	26.9	2	5	248	0.00	30.272 
12:50	45.1	45.1	45.1	49	27.1	2	5	292	0.00	30.272 
12:55	45.4	45.4	45.4	52	28.8	1	4	248	0.00	30.272 
13:00	45.7	45.7	45.7	49	27.6	2	6	248	0.00	30.264 
13:05	46.0	46.0	46.0	49	27.9	2	7	248	0.00	30.264 
13:10	46.1	46.1	46.1	49	28.0	2	5	248	0.00	30.264 
13:15	46.4	46.4	46.4	50	28.8	2	5	292	0.00	30.262 
13:20	46.8	46.8	46.8	49	28.7	2	6	248	0.00	30.262 
13:25	47.0	47.0	47.0	48	28.3	1	6	248	0.00	30.262 
13:30	47.1	47.1	47.1	49	28.9	3	11	270	0.00	30.253 
13:35	47.3	47.3	47.3	48	28.6	2	5	248	0.00	30.253 
13:40	47.4	47.4	47.4	48	28.7	2	6	248	0.00	30.253 
13:45	47.4	47.4	47.4	47	28.2	3	6	248	0.00	30.259 
13:50	47.6	47.6	47.6	48	28.9	1	4	248	0.00	30.259 
13:55	47.9	47.9	47.9	46	28.1	3	6	248	0.00	30.259 
14:00	48.0	48.0	48.0	47	28.7	2	7	248	0.00	30.246 
14:05	48.3	48.3	48.3	47	29.0	2	6	248	0.00	30.246 
14:10	48.5	48.5	48.5	46	28.7	2	6	248	0.00	30.246 
14:15	48.9	48.9	48.9	46	29.0	1	5	248	0.00	30.242 
14:20	49.2	49.2	49.2	46	29.3	2	5	248	0.00	30.242 
14:25	49.8	49.8	49.8	45	29.3	2	7	248	0.00	30.242 
14:30	49.6	49.6	49.6	45	29.1	2	5	270	0.00	30.238 
14:35	49.5	49.5	49.5	44	28.5	3	7	248	0.00	30.238 
14:40	49.6	49.6	49.6	46	29.7	2	7	248	0.00	30.238 
14:45	50.1	50.1	50.1	44	29.0	2	5	248	0.00	30.228 
14:50	50.4	50.4	50.4	44	29.3	2	4	248	0.00	30.228 
14:55	50.7	50.7	50.7	42	28.5	3	6	248	0.00	30.228 
15:00	50.5	50.5	50.5	44	29.4	2	6	248	0.00	30.217 
15:05	50.8	50.8	50.8	41	28.0	2	6	248	0.00	30.217 
15:10	51.0	51.0	51.0	42	28.7	3	10	248	0.00	30.217 
15:15	50.8	50.8	50.8	41	28.0	3	5	248	0.00	30.211 
15:20	51.0	51.0	51.0	40	27.5	3	7	248	0.00	30.211 
15:25	51.1	51.1	51.1	39	27.0	3	9	248	0.00	30.211 
15:30	51.4	51.4	51.4	39	27.3	3	6	248	0.00	30.206 
15:35	51.6	51.6	51.6	40	28.1	3	10	248	0.00	30.206 
15:40	52.0	52.0	52.0	38	27.2	2	6	248	0.00	30.206 
15:45	51.9	51.9	51.9	37	26.5	4	10	270	0.00	30.200 
15:50	52.2	52.2	52.2	39	28.0	3	7	270	0.00	30.200 
15:55	52.3	52.3	52.3	37	26.8	4	10	270	0.00	30.200 
16:00	52.3	52.3	52.3	38	27.5	2	7	248	0.00	30.195 
16:05	52.6	52.6	52.6	37	27.1	3	7	270	0.00	30.195 
16:10	52.3	52.3	52.3	37	26.8	3	7	248	0.00	30.195 
16:15	52.0	52.0	52.0	38	27.2	4	10	248	0.00	30.190 
16:20	52.0	52.0	52.0	37	26.5	3	7	270	0.00	30.190 
16:25	52.2	52.2	52.2	38	27.4	3	7	248	0.00	30.190 
16:30	52.3	52.3	52.3	38	27.5	3	8	248	0.00	30.193 
16:35	52.5	52.5	52.5	37	27.0	3	11	248	0.00	30.193 
16:40	52.5	52.5	52.5	36	26.3	3	9	248	0.00	30.193 
16:45	52.3	52.3	52.3	36	26.1	4	10	248	0.00	30.191 
16:50	52.5	52.5	52.5	36	26.3	4	9	270	0.00	30.191 
16:55	52.8	52.8	52.8	38	27.9	3	6	270	0.00	30.191 
17:00	52.8	52.8	52.8	36	26.6	3	11	248	0.00	30.180 
17:05	52.9	52.9	52.9	37	27.3	3	9	248	0.00	30.180 
17:10	53.2	53.2	53.2	35	26.3	2	6	270	0.00	30.180 
17:15	53.5	53.5	53.5	36	27.2	3	6	248	0.00	30.182 
17:20	52.9	52.9	52.9	37	27.3	2	5	270	0.00	30.182 
17:25	53.2	53.2	53.2	38	28.3	2	6	248	0.00	30.182 
17:30	53.8	53.8	53.8	36	27.5	2	4	270	0.00	30.175 
17:35	53.9	53.9	53.9	33	25.5	3	12	248	0.00	30.175 
17:40	54.1	54.1	54.1	32	24.9	3	7	270	0.00	30.175 
17:45	53.9	53.9	53.9	32	24.7	4	11	270	0.00	30.177 
17:50	53.6	53.6	53.6	32	24.5	4	10	248	0.00	30.177 
17:55	53.6	53.6	53.6	32	24.5	3	9	248	0.00	30.177 
18:00	53.9	53.9	53.9	32	24.7	2	5	248	0.00	30.174 
18:05	53.5	53.5	53.5	32	24.4	3	6	270	0.00	30.174 
18:10	53.5	53.5	53.5	33	25.1	2	5	248	0.00	30.174 
18:15	53.5	53.5	53.5	33	25.1	2	5	248	0.00	30.171 
18:20	53.5	53.5	53.5	31	23.6	3	5	270	0.00	30.171 
18:25	53.3	53.3	53.3	32	24.2	2	6	248	0.00	30.171 
18:30	53.3	53.3	53.3	32	24.2	2	6	248	0.00	30.169 
18:35	53.3	53.3	53.3	31	23.4	3	7	248	0.00	30.169 
18:40	53.3	53.3	53.3	32	24.2	2	5	248	0.00	30.169 
18:45	53.3	53.3	53.3	32	24.2	2	7	248	0.00	30.168 
18:50	53.3	53.3	53.3	31	23.4	2	5	248	0.00	30.168 
18:55	53.3	53.3	53.3	31	23.4	1	4	270	0.00	30.168 
19:00	53.2	53.2	53.2	31	23.4	3	7	248	0.00	30.167 
19:05	52.8	52.8	52.8	32	23.8	1	4	248	0.00	30.167 
19:10	52.6	52.6	52.6	32	23.6	1	4	248	0.00	30.167 
19:15	52.6	52.6	52.6	32	23.6	1	4	248	0.00	30.166 
19:20	52.8	52.8	52.8	32	23.8	1	4	270	0.00	30.166 
19:25	52.9	52.9	52.9	33	24.6	1	5	248	0.00	30.166 
19:30	52.8	52.8	52.8	32	23.8	1	3	248	0.00	30.160 
19:35	52.6	52.6	52.6	32	23.6	1	4	270	0.00	30.160 
19:40	52.5	52.5	52.5	32	23.5	1	3	248	0.00	30.160 
19:45	52.2	52.2	52.2	33	24.0	1	3	248	0.00	30.158 
19:50	52.0	52.0	52.0	33	23.8	1	3	248	0.00	30.158 
19:55	51.9	51.9	51.9	35	25.1	0	3	248	0.00	30.158 
20:00	51.6	51.6	51.6	34	24.2	1	4	248	0.00	30.156 
20:05	51.4	51.4	51.4	35	24.7	0	3	248	0.00	30.156 
20:10	51.3	51.3	51.3	35	24.6	0	4	248	0.00	30.156 
20:15	51.1	51.1	51.1	36	25.1	0	3	248	0.00	30.156 
20:20	51.0	51.0	51.0	36	25.0	0	2	248	0.00	30.156 
20:25	50.7	50.7	50.7	38	26.0	0	1	248	0.00	30.156 
20:30	50.4	50.4	50.4	38	25.8	0	1	248	0.00	30.158 
20:35	49.9	49.9	49.9	38	25.3	0	1	248	0.00	30.158 
20:40	49.5	49.5	49.5	38	25.0	0	0	---	0.00	30.158 
20:45	49.2	49.2	49.2	40	25.9	0	0	---	0.00	30.164 
20:50	48.9	48.9	48.9	41	26.2	0	0	---	0.00	30.164 
20:55	48.6	48.6	48.6	42	26.6	0	1	248	0.00	30.164 
21:00	48.6	48.6	48.6	43	27.1	0	2	248	0.00	30.165 
21:05	48.6	48.6	48.6	43	27.1	0	2	248	0.00	30.165 
21:10	48.6	48.6	48.6	44	27.7	0	1	248	0.00	30.165 
21:15	48.5	48.5	48.5	44	27.6	0	1	248	0.00	30.163 
21:20	48.3	48.3	48.3	44	27.4	0	1	248	0.00	30.163 
21:25	48.2	48.2	48.2	45	27.9	0	2	248	0.00	30.163 
21:30	48.0	48.0	48.0	46	28.2	0	1	248	0.00	30.164 
21:35	47.7	47.7	47.7	46	27.9	0	1	248	0.00	30.164 
21:40	47.4	47.4	47.4	47	28.2	0	1	248	0.00	30.164 
21:45	47.3	47.3	47.3	47	28.1	0	1	248	0.00	30.167 
21:50	47.1	47.1	47.1	48	28.4	0	1	248	0.00	30.167 
21:55	47.0	47.0	47.0	48	28.3	0	2	248	0.00	30.167 
22:00	47.0	47.0	47.0	49	28.8	0	1	248	0.00	30.168 
22:05	46.8	46.8	46.8	50	29.2	0	1	248	0.00	30.168 
22:10	46.5	46.5	46.5	50	28.9	0	1	248	0.00	30.168 
22:15	46.4	46.4	46.4	51	29.3	0	1	248	0.00	30.162 
22:20	46.2	46.2	46.2	51	29.1	0	2	248	0.00	30.162 
22:25	46.2	46.2	46.2	51	29.1	0	3	248	0.00	30.162 
22:30	46.2	46.2	46.2	51	29.1	0	3	248	0.00	30.162 
22:35	46.4	46.4	46.4	51	29.3	0	2	248	0.00	30.162 
22:40	46.2	46.2	46.2	51	29.1	0	3	248	0.00	30.162 
22:45	46.2	46.2	46.2	51	29.1	0	3	248	0.00	30.162 
22:50	46.4	46.4	46.4	51	29.3	1	5	248	0.00	30.162 
22:55	46.4	46.4	46.4	51	29.3	1	7	248	0.00	30.162 
23:00	46.4	46.4	46.4	51	29.3	0	3	248	0.00	30.162 
23:05	46.4	46.4	46.4	51	29.3	1	3	248	0.00	30.162 
23:10	46.2	46.2	46.2	51	29.1	1	4	248	0.00	30.162 
23:15	46.1	46.1	46.1	52	29.5	0	2	248	0.00	30.161 
23:20	46.0	46.0	46.0	53	29.8	0	2	248	0.00	30.161 
23:25	46.0	46.0	46.0	53	29.8	0	3	248	0.00	30.161 
23:30	45.8	45.8	45.8	54	30.1	0	2	248	0.00	30.161 
23:35	45.7	45.7	45.7	54	30.0	0	3	248	0.00	30.161 
23:40	45.7	45.7	45.7	54	30.0	0	2	248	0.00	30.161 
23:45	45.5	45.5	45.5	54	29.8	0	3	248	0.00	30.161 
23:50	45.5	45.5	45.5	55	30.3	1	4	248	0.00	30.161 
23:55	45.5	45.5	45.5	55	30.3	0	3	248	0.00	30.161 

CoCoRaHS
IN-AL-39
A2 Web Hosting
Creative Commons License
GoDaddy
search engine by freefind advanced

loaded 2018-11-20 14:17:44 • last modified 2010-11-18 10:43:29
Privacy PolicyDisclaimer
• wx.awcolley.com is powered by PmWiki v.2002016 •
• all content (unless otherwise noted) © 2018 A W Colley